sensor_id;sensor_type;location;lat;lon;timestamp;pressure;altitude;pressure_sealevel;temperature;humidity
46347;BME280;32057;47.830;19.046;2023-02-22T00:00:48;100208.09;;;5.28;100.00
46347;BME280;32057;47.830;19.046;2023-02-22T00:03:15;100218.88;;;5.40;100.00
46347;BME280;32057;47.830;19.046;2023-02-22T00:05:42;100213.91;;;5.45;100.00
46347;BME280;32057;47.830;19.046;2023-02-22T00:08:15;100219.25;;;5.49;100.00
46347;BME280;32057;47.830;19.046;2023-02-22T00:10:41;100216.94;;;5.57;100.00
46347;BME280;32057;47.830;19.046;2023-02-22T00:13:09;100205.25;;;5.65;100.00
46347;BME280;32057;47.830;19.046;2023-02-22T00:15:35;100210.78;;;5.98;100.00
46347;BME280;32057;47.830;19.046;2023-02-22T00:18:02;100201.47;;;6.26;100.00
46347;BME280;32057;47.830;19.046;2023-02-22T00:20:28;100201.81;;;6.35;100.00
46347;BME280;32057;47.830;19.046;2023-02-22T00:22:53;100201.66;;;6.56;100.00
46347;BME280;32057;47.830;19.046;2023-02-22T00:25:21;100201.84;;;6.63;100.00
46347;BME280;32057;47.830;19.046;2023-02-22T00:27:48;100210.88;;;6.74;100.00
46347;BME280;32057;47.830;19.046;2023-02-22T00:30:23;100202.38;;;6.78;100.00
46347;BME280;32057;47.830;19.046;2023-02-22T00:32:52;100192.16;;;6.81;100.00
46347;BME280;32057;47.830;19.046;2023-02-22T00:35:20;100206.09;;;6.86;100.00
46347;BME280;32057;47.830;19.046;2023-02-22T00:37:47;100205.69;;;6.74;100.00
46347;BME280;32057;47.830;19.046;2023-02-22T00:40:17;100203.50;;;6.61;100.00
46347;BME280;32057;47.830;19.046;2023-02-22T00:42:43;100207.53;;;6.52;100.00
46347;BME280;32057;47.830;19.046;2023-02-22T00:45:10;100200.72;;;6.54;100.00
46347;BME280;32057;47.830;19.046;2023-02-22T00:47:36;100203.38;;;6.56;100.00
46347;BME280;32057;47.830;19.046;2023-02-22T00:50:02;100200.91;;;6.59;100.00
46347;BME280;32057;47.830;19.046;2023-02-22T00:52:27;100198.91;;;6.52;100.00
46347;BME280;32057;47.830;19.046;2023-02-22T00:54:56;100193.63;;;6.49;100.00
46347;BME280;32057;47.830;19.046;2023-02-22T00:57:23;100203.88;;;6.46;100.00
46347;BME280;32057;47.830;19.046;2023-02-22T00:59:48;100204.53;;;6.40;100.00
46347;BME280;32057;47.830;19.046;2023-02-22T01:02:13;100209.59;;;6.37;100.00
46347;BME280;32057;47.830;19.046;2023-02-22T01:04:39;100204.88;;;6.25;100.00
46347;BME280;32057;47.830;19.046;2023-02-22T01:07:04;100203.97;;;6.25;100.00
46347;BME280;32057;47.830;19.046;2023-02-22T01:09:30;100201.69;;;6.32;100.00
46347;BME280;32057;47.830;19.046;2023-02-22T01:11:56;100201.22;;;6.44;100.00
46347;BME280;32057;47.830;19.046;2023-02-22T01:14:22;100201.56;;;6.53;100.00
46347;BME280;32057;47.830;19.046;2023-02-22T01:16:51;100205.16;;;6.58;100.00
46347;BME280;32057;47.830;19.046;2023-02-22T01:19:19;100200.00;;;6.58;100.00
46347;BME280;32057;47.830;19.046;2023-02-22T01:21:45;100194.94;;;6.62;100.00
46347;BME280;32057;47.830;19.046;2023-02-22T01:24:11;100203.91;;;6.73;100.00
46347;BME280;32057;47.830;19.046;2023-02-22T01:26:43;100193.31;;;6.91;100.00
46347;BME280;32057;47.830;19.046;2023-02-22T01:29:14;100192.94;;;7.06;100.00
46347;BME280;32057;47.830;19.046;2023-02-22T01:31:49;100185.50;;;7.16;100.00
46347;BME280;32057;47.830;19.046;2023-02-22T01:34:16;100188.34;;;7.24;100.00
46347;BME280;32057;47.830;19.046;2023-02-22T01:36:41;100182.50;;;7.30;100.00
46347;BME280;32057;47.830;19.046;2023-02-22T01:39:07;100180.88;;;7.33;100.00
46347;BME280;32057;47.830;19.046;2023-02-22T01:41:34;100187.84;;;7.36;100.00
46347;BME280;32057;47.830;19.046;2023-02-22T01:44:18;100186.31;;;7.43;100.00
46347;BME280;32057;47.830;19.046;2023-02-22T01:46:44;100190.75;;;7.47;100.00
46347;BME280;32057;47.830;19.046;2023-02-22T01:49:11;100193.31;;;7.45;100.00
46347;BME280;32057;47.830;19.046;2023-02-22T01:51:43;100190.06;;;7.51;100.00
46347;BME280;32057;47.830;19.046;2023-02-22T01:54:18;100190.94;;;7.51;100.00
46347;BME280;32057;47.830;19.046;2023-02-22T01:56:50;100196.16;;;7.53;100.00
46347;BME280;32057;47.830;19.046;2023-02-22T01:59:19;100188.38;;;7.53;100.00
46347;BME280;32057;47.830;19.046;2023-02-22T02:01:46;100193.69;;;7.57;100.00
46347;BME280;32057;47.830;19.046;2023-02-22T02:04:18;100184.22;;;7.58;100.00
46347;BME280;32057;47.830;19.046;2023-02-22T02:06:45;100189.50;;;7.61;100.00
46347;BME280;32057;47.830;19.046;2023-02-22T02:09:29;100192.09;;;7.63;100.00
46347;BME280;32057;47.830;19.046;2023-02-22T02:11:58;100188.56;;;7.59;100.00
46347;BME280;32057;47.830;19.046;2023-02-22T02:14:25;100182.47;;;7.57;100.00
46347;BME280;32057;47.830;19.046;2023-02-22T02:16:52;100189.09;;;7.49;100.00
46347;BME280;32057;47.830;19.046;2023-02-22T02:27:30;100184.78;;;7.48;100.00
46347;BME280;32057;47.830;19.046;2023-02-22T02:35:48;100180.63;;;7.53;100.00
46347;BME280;32057;47.830;19.046;2023-02-22T02:41:38;100177.22;;;7.55;100.00
46347;BME280;32057;47.830;19.046;2023-02-22T02:43:52;100172.84;;;7.53;100.00
46347;BME280;32057;47.830;19.046;2023-02-22T02:46:30;100176.13;;;7.47;100.00
46347;BME280;32057;47.830;19.046;2023-02-22T02:49:02;100167.56;;;7.50;100.00
46347;BME280;32057;47.830;19.046;2023-02-22T02:51:34;100173.56;;;7.49;100.00
46347;BME280;32057;47.830;19.046;2023-02-22T02:54:02;100171.81;;;7.48;100.00
46347;BME280;32057;47.830;19.046;2023-02-22T02:56:28;100173.56;;;7.49;100.00
46347;BME280;32057;47.830;19.046;2023-02-22T02:58:55;100168.38;;;7.49;100.00
46347;BME280;32057;47.830;19.046;2023-02-22T03:01:44;100171.94;;;7.52;100.00
46347;BME280;32057;47.830;19.046;2023-02-22T03:18:07;100188.03;;;7.42;100.00
46347;BME280;32057;47.830;19.046;2023-02-22T03:20:53;100190.56;;;7.41;100.00
46347;BME280;32057;47.830;19.046;2023-02-22T03:23:40;100191.50;;;7.43;100.00
46347;BME280;32057;47.830;19.046;2023-02-22T03:26:16;100195.72;;;7.39;100.00
46347;BME280;32057;47.830;19.046;2023-02-22T03:28:50;100190.88;;;7.23;100.00
46347;BME280;32057;47.830;19.046;2023-02-22T03:31:25;100190.50;;;7.10;100.00
46347;BME280;32057;47.830;19.046;2023-02-22T03:33:56;100186.94;;;7.07;100.00
46347;BME280;32057;47.830;19.046;2023-02-22T03:38:52;100191.78;;;6.96;100.00
46347;BME280;32057;47.830;19.046;2023-02-22T03:41:22;100181.66;;;7.04;100.00
46347;BME280;32057;47.830;19.046;2023-02-22T03:43:54;100183.41;;;7.05;100.00
46347;BME280;32057;47.830;19.046;2023-02-22T03:46:25;100187.63;;;7.01;100.00
46347;BME280;32057;47.830;19.046;2023-02-22T03:48:58;100194.38;;;6.70;100.00
46347;BME280;32057;47.830;19.046;2023-02-22T03:51:27;100195.75;;;6.61;100.00
46347;BME280;32057;47.830;19.046;2023-02-22T03:53:53;100202.66;;;6.36;100.00
46347;BME280;32057;47.830;19.046;2023-02-22T03:56:36;100206.19;;;6.38;100.00
46347;BME280;32057;47.830;19.046;2023-02-22T03:59:06;100203.00;;;6.45;100.00
46347;BME280;32057;47.830;19.046;2023-02-22T04:01:33;100208.25;;;6.48;100.00
46347;BME280;32057;47.830;19.046;2023-02-22T04:03:59;100208.28;;;6.24;100.00
46347;BME280;32057;47.830;19.046;2023-02-22T04:06:25;100210.09;;;6.27;100.00
46347;BME280;32057;47.830;19.046;2023-02-22T04:08:50;100215.88;;;6.20;100.00
46347;BME280;32057;47.830;19.046;2023-02-22T04:11:16;100217.72;;;6.00;100.00
46347;BME280;32057;47.830;19.046;2023-02-22T04:13:41;100211.03;;;5.82;100.00
46347;BME280;32057;47.830;19.046;2023-02-22T04:16:07;100214.56;;;5.62;100.00
46347;BME280;32057;47.830;19.046;2023-02-22T04:18:32;100218.34;;;5.49;100.00
46347;BME280;32057;47.830;19.046;2023-02-22T04:20:58;100212.25;;;5.24;100.00
46347;BME280;32057;47.830;19.046;2023-02-22T04:23:23;100210.47;;;5.23;100.00
46347;BME280;32057;47.830;19.046;2023-02-22T04:25:49;100220.78;;;5.23;100.00
46347;BME280;32057;47.830;19.046;2023-02-22T04:28:14;100223.22;;;4.97;100.00
46347;BME280;32057;47.830;19.046;2023-02-22T04:30:39;100228.22;;;4.94;100.00
46347;BME280;32057;47.830;19.046;2023-02-22T04:33:05;100218.06;;;4.97;100.00
46347;BME280;32057;47.830;19.046;2023-02-22T04:35:30;100216.88;;;4.89;100.00
46347;BME280;32057;47.830;19.046;2023-02-22T04:37:56;100218.59;;;4.90;100.00
46347;BME280;32057;47.830;19.046;2023-02-22T04:40:22;100214.09;;;5.06;100.00
46347;BME280;32057;47.830;19.046;2023-02-22T04:42:48;100221.56;;;4.99;100.00
46347;BME280;32057;47.830;19.046;2023-02-22T04:45:13;100211.75;;;5.12;100.00
46347;BME280;32057;47.830;19.046;2023-02-22T04:47:39;100213.63;;;5.16;100.00
46347;BME280;32057;47.830;19.046;2023-02-22T04:50:06;100222.19;;;5.15;100.00
46347;BME280;32057;47.830;19.046;2023-02-22T04:52:33;100219.81;;;5.19;100.00
46347;BME280;32057;47.830;19.046;2023-02-22T04:54:59;100225.81;;;4.99;100.00
46347;BME280;32057;47.830;19.046;2023-02-22T04:57:24;100228.91;;;4.90;100.00
46347;BME280;32057;47.830;19.046;2023-02-22T04:59:49;100236.31;;;4.62;100.00
46347;BME280;32057;47.830;19.046;2023-02-22T05:02:16;100231.84;;;4.57;100.00
46347;BME280;32057;47.830;19.046;2023-02-22T05:04:41;100234.63;;;4.43;100.00
46347;BME280;32057;47.830;19.046;2023-02-22T05:07:07;100234.81;;;4.47;100.00
46347;BME280;32057;47.830;19.046;2023-02-22T05:09:32;100241.91;;;4.51;100.00
46347;BME280;32057;47.830;19.046;2023-02-22T05:11:58;100241.97;;;4.33;100.00
46347;BME280;32057;47.830;19.046;2023-02-22T05:14:23;100237.88;;;4.19;100.00
46347;BME280;32057;47.830;19.046;2023-02-22T05:16:53;100250.09;;;4.04;100.00
46347;BME280;32057;47.830;19.046;2023-02-22T05:19:19;100247.38;;;4.01;100.00
46347;BME280;32057;47.830;19.046;2023-02-22T05:21:44;100248.66;;;4.10;100.00
46347;BME280;32057;47.830;19.046;2023-02-22T05:24:10;100259.25;;;4.16;100.00
46347;BME280;32057;47.830;19.046;2023-02-22T05:26:35;100260.34;;;4.22;100.00
46347;BME280;32057;47.830;19.046;2023-02-22T05:29:00;100260.34;;;4.22;100.00
46347;BME280;32057;47.830;19.046;2023-02-22T05:31:26;100272.19;;;4.18;100.00
46347;BME280;32057;47.830;19.046;2023-02-22T05:33:51;100262.69;;;4.17;100.00
46347;BME280;32057;47.830;19.046;2023-02-22T05:36:17;100265.91;;;3.93;100.00
46347;BME280;32057;47.830;19.046;2023-02-22T05:38:42;100266.09;;;3.78;100.00
46347;BME280;32057;47.830;19.046;2023-02-22T05:41:10;100271.16;;;3.77;100.00
46347;BME280;32057;47.830;19.046;2023-02-22T05:43:36;100273.91;;;3.80;100.00
46347;BME280;32057;47.830;19.046;2023-02-22T05:46:02;100276.56;;;3.82;100.00
46347;BME280;32057;47.830;19.046;2023-02-22T05:48:27;100280.97;;;3.84;100.00
46347;BME280;32057;47.830;19.046;2023-02-22T05:50:53;100281.81;;;3.85;100.00
46347;BME280;32057;47.830;19.046;2023-02-22T05:53:18;100286.84;;;3.82;100.00
46347;BME280;32057;47.830;19.046;2023-02-22T05:55:44;100285.34;;;3.87;100.00
46347;BME280;32057;47.830;19.046;2023-02-22T05:58:09;100283.59;;;3.86;100.00
46347;BME280;32057;47.830;19.046;2023-02-22T06:00:34;100288.31;;;3.76;100.00
46347;BME280;32057;47.830;19.046;2023-02-22T06:03:06;100298.31;;;3.70;100.00
46347;BME280;32057;47.830;19.046;2023-02-22T06:05:32;100296.13;;;3.60;100.00
46347;BME280;32057;47.830;19.046;2023-02-22T06:07:58;100300.97;;;3.54;100.00
46347;BME280;32057;47.830;19.046;2023-02-22T06:10:24;100301.66;;;3.50;100.00
46347;BME280;32057;47.830;19.046;2023-02-22T06:12:52;100299.56;;;3.43;100.00
46347;BME280;32057;47.830;19.046;2023-02-22T06:15:19;100303.69;;;3.39;100.00
46347;BME280;32057;47.830;19.046;2023-02-22T06:17:45;100305.38;;;3.38;100.00
46347;BME280;32057;47.830;19.046;2023-02-22T06:20:13;100302.00;;;3.39;100.00
46347;BME280;32057;47.830;19.046;2023-02-22T06:22:39;100298.78;;;3.44;100.00
46347;BME280;32057;47.830;19.046;2023-02-22T06:25:11;100319.00;;;3.54;100.00
46347;BME280;32057;47.830;19.046;2023-02-22T06:27:37;100311.66;;;3.62;100.00
46347;BME280;32057;47.830;19.046;2023-02-22T06:30:03;100313.59;;;3.67;100.00
46347;BME280;32057;47.830;19.046;2023-02-22T06:32:29;100309.72;;;3.75;100.00
46347;BME280;32057;47.830;19.046;2023-02-22T06:34:55;100315.09;;;3.80;100.00
46347;BME280;32057;47.830;19.046;2023-02-22T06:37:20;100309.47;;;3.89;100.00
46347;BME280;32057;47.830;19.046;2023-02-22T06:39:46;100315.34;;;4.04;100.00
46347;BME280;32057;47.830;19.046;2023-02-22T06:42:11;100316.94;;;4.20;100.00
46347;BME280;32057;47.830;19.046;2023-02-22T06:44:37;100316.59;;;4.32;100.00
46347;BME280;32057;47.830;19.046;2023-02-22T06:47:02;100313.03;;;4.48;100.00
46347;BME280;32057;47.830;19.046;2023-02-22T06:49:27;100315.38;;;4.63;100.00
46347;BME280;32057;47.830;19.046;2023-02-22T06:51:53;100316.00;;;4.76;100.00
46347;BME280;32057;47.830;19.046;2023-02-22T06:54:20;100317.47;;;4.91;100.00
46347;BME280;32057;47.830;19.046;2023-02-22T06:56:45;100320.63;;;5.05;100.00
46347;BME280;32057;47.830;19.046;2023-02-22T06:59:11;100322.06;;;5.19;100.00
46347;BME280;32057;47.830;19.046;2023-02-22T07:01:38;100319.44;;;5.38;100.00
46347;BME280;32057;47.830;19.046;2023-02-22T07:04:04;100321.56;;;5.49;100.00
46347;BME280;32057;47.830;19.046;2023-02-22T07:06:29;100322.34;;;5.67;100.00
46347;BME280;32057;47.830;19.046;2023-02-22T07:08:55;100317.06;;;5.87;100.00
46347;BME280;32057;47.830;19.046;2023-02-22T07:11:20;100324.03;;;6.10;100.00
46347;BME280;32057;47.830;19.046;2023-02-22T07:13:45;100325.50;;;6.26;100.00
46347;BME280;32057;47.830;19.046;2023-02-22T07:16:11;100325.94;;;6.38;100.00
46347;BME280;32057;47.830;19.046;2023-02-22T07:18:36;100327.72;;;6.64;100.00
46347;BME280;32057;47.830;19.046;2023-02-22T07:21:03;100325.06;;;6.86;100.00
46347;BME280;32057;47.830;19.046;2023-02-22T07:23:28;100324.44;;;7.17;100.00
46347;BME280;32057;47.830;19.046;2023-02-22T07:25:54;100321.72;;;7.40;100.00
46347;BME280;32057;47.830;19.046;2023-02-22T07:28:19;100320.63;;;7.59;100.00
46347;BME280;32057;47.830;19.046;2023-02-22T07:30:45;100315.84;;;7.71;100.00
46347;BME280;32057;47.830;19.046;2023-02-22T07:33:11;100311.91;;;7.84;100.00
46347;BME280;32057;47.830;19.046;2023-02-22T07:35:42;100307.09;;;7.96;100.00
46347;BME280;32057;47.830;19.046;2023-02-22T07:38:08;100311.88;;;8.11;100.00
46347;BME280;32057;47.830;19.046;2023-02-22T07:40:37;100315.06;;;8.31;100.00
46347;BME280;32057;47.830;19.046;2023-02-22T07:45:38;100315.19;;;8.65;100.00
46347;BME280;32057;47.830;19.046;2023-02-22T07:48:05;100307.81;;;8.80;100.00
46347;BME280;32057;47.830;19.046;2023-02-22T07:50:32;100309.09;;;8.96;100.00
46347;BME280;32057;47.830;19.046;2023-02-22T07:53:00;100312.16;;;9.13;100.00
46347;BME280;32057;47.830;19.046;2023-02-22T07:55:27;100318.41;;;9.21;100.00
46347;BME280;32057;47.830;19.046;2023-02-22T07:57:55;100313.56;;;9.35;100.00
46347;BME280;32057;47.830;19.046;2023-02-22T08:02:59;100302.03;;;9.60;100.00
46347;BME280;32057;47.830;19.046;2023-02-22T08:05:26;100313.47;;;9.68;100.00
46347;BME280;32057;47.830;19.046;2023-02-22T08:07:52;100313.66;;;9.76;100.00
46347;BME280;32057;47.830;19.046;2023-02-22T08:10:20;100313.25;;;9.95;100.00
46347;BME280;32057;47.830;19.046;2023-02-22T08:12:46;100309.91;;;10.01;100.00
46347;BME280;32057;47.830;19.046;2023-02-22T08:15:25;100311.06;;;10.14;100.00
46347;BME280;32057;47.830;19.046;2023-02-22T08:17:53;100310.41;;;10.23;100.00
46347;BME280;32057;47.830;19.046;2023-02-22T08:20:19;100308.91;;;10.34;100.00
46347;BME280;32057;47.830;19.046;2023-02-22T08:22:46;100312.63;;;10.45;100.00
46347;BME280;32057;47.830;19.046;2023-02-22T08:25:12;100311.91;;;10.52;100.00
46347;BME280;32057;47.830;19.046;2023-02-22T08:27:40;100314.44;;;10.49;98.44
46347;BME280;32057;47.830;19.046;2023-02-22T08:30:06;100313.81;;;10.61;99.44
46347;BME280;32057;47.830;19.046;2023-02-22T08:32:32;100306.19;;;10.72;99.75
46347;BME280;32057;47.830;19.046;2023-02-22T08:34:57;100305.72;;;10.47;97.60
46347;BME280;32057;47.830;19.046;2023-02-22T08:37:23;100306.94;;;10.66;99.15
46347;BME280;32057;47.830;19.046;2023-02-22T08:39:48;100313.28;;;10.79;98.67
46347;BME280;32057;47.830;19.046;2023-02-22T08:42:14;100312.66;;;10.91;97.46
46347;BME280;32057;47.830;19.046;2023-02-22T08:44:39;100316.34;;;11.04;97.27
46347;BME280;32057;47.830;19.046;2023-02-22T08:47:05;100307.84;;;11.12;96.71
46347;BME280;32057;47.830;19.046;2023-02-22T08:49:31;100306.19;;;11.18;94.88
46347;BME280;32057;47.830;19.046;2023-02-22T08:51:57;100307.09;;;11.21;95.56
46347;BME280;32057;47.830;19.046;2023-02-22T08:54:23;100306.44;;;11.33;97.34
46347;BME280;32057;47.830;19.046;2023-02-22T08:56:49;100304.53;;;11.23;93.48
46347;BME280;32057;47.830;19.046;2023-02-22T08:59:15;100305.41;;;11.23;92.76
46347;BME280;32057;47.830;19.046;2023-02-22T09:01:41;100303.63;;;11.22;93.60
46347;BME280;32057;47.830;19.046;2023-02-22T09:04:07;100304.78;;;11.36;93.86
46347;BME280;32057;47.830;19.046;2023-02-22T09:06:32;100293.69;;;11.50;94.29
46347;BME280;32057;47.830;19.046;2023-02-22T09:08:57;100290.44;;;11.63;94.12
46347;BME280;32057;47.830;19.046;2023-02-22T09:11:23;100292.34;;;11.75;92.97
46347;BME280;32057;47.830;19.046;2023-02-22T09:13:48;100298.53;;;11.83;91.58
46347;BME280;32057;47.830;19.046;2023-02-22T09:16:14;100299.59;;;11.93;91.81
46347;BME280;32057;47.830;19.046;2023-02-22T09:18:39;100294.53;;;12.05;91.92
46347;BME280;32057;47.830;19.046;2023-02-22T09:21:05;100291.81;;;11.98;89.55
46347;BME280;32057;47.830;19.046;2023-02-22T09:23:30;100287.59;;;12.04;91.73
46347;BME280;32057;47.830;19.046;2023-02-22T09:25:56;100296.47;;;12.19;88.32
46347;BME280;32057;47.830;19.046;2023-02-22T09:28:25;100292.19;;;12.25;87.67
46347;BME280;32057;47.830;19.046;2023-02-22T09:30:51;100291.19;;;12.15;87.08
46347;BME280;32057;47.830;19.046;2023-02-22T09:33:18;100291.16;;;12.12;87.78
46347;BME280;32057;47.830;19.046;2023-02-22T09:35:47;100292.88;;;12.12;88.24
46347;BME280;32057;47.830;19.046;2023-02-22T09:38:17;100297.16;;;12.05;87.59
46347;BME280;32057;47.830;19.046;2023-02-22T09:49:15;100292.75;;;12.01;88.60
46347;BME280;32057;47.830;19.046;2023-02-22T09:51:57;100293.66;;;12.05;89.42
46347;BME280;32057;47.830;19.046;2023-02-22T09:56:55;100296.25;;;12.03;87.18
46347;BME280;32057;47.830;19.046;2023-02-22T09:59:27;100289.28;;;12.01;86.77
46347;BME280;32057;47.830;19.046;2023-02-22T10:02:22;100287.56;;;12.03;85.94
46347;BME280;32057;47.830;19.046;2023-02-22T10:05:12;100287.63;;;12.09;86.40
46347;BME280;32057;47.830;19.046;2023-02-22T10:07:58;100285.97;;;12.15;87.08
46347;BME280;32057;47.830;19.046;2023-02-22T10:10:27;100289.47;;;12.18;86.53
46347;BME280;32057;47.830;19.046;2023-02-22T10:26:28;100273.50;;;11.93;85.69
46347;BME280;32057;47.830;19.046;2023-02-22T10:31:31;100270.00;;;11.91;85.97
46347;BME280;32057;47.830;19.046;2023-02-22T10:34:02;100268.31;;;11.93;87.42
46347;BME280;32057;47.830;19.046;2023-02-22T10:36:30;100270.78;;;11.87;87.96
46347;BME280;32057;47.830;19.046;2023-02-22T10:39:04;100265.47;;;11.79;87.71
46347;BME280;32057;47.830;19.046;2023-02-22T10:41:40;100264.56;;;11.77;87.26
46347;BME280;32057;47.830;19.046;2023-02-22T10:44:09;100262.81;;;11.74;88.45
46347;BME280;32057;47.830;19.046;2023-02-22T10:46:34;100261.78;;;11.65;88.90
46347;BME280;32057;47.830;19.046;2023-02-22T10:49:04;100264.28;;;11.57;91.04
46347;BME280;32057;47.830;19.046;2023-02-22T10:51:31;100256.28;;;11.45;91.19
46347;BME280;32057;47.830;19.046;2023-02-22T10:54:24;100257.94;;;11.41;89.53
46347;BME280;32057;47.830;19.046;2023-02-22T10:56:53;100257.06;;;11.41;89.52
46347;BME280;32057;47.830;19.046;2023-02-22T10:59:40;100264.97;;;11.47;88.10
46347;BME280;32057;47.830;19.046;2023-02-22T11:04:49;100257.00;;;11.38;88.59
46347;BME280;32057;47.830;19.046;2023-02-22T11:07:22;100258.66;;;11.31;88.21
46347;BME280;32057;47.830;19.046;2023-02-22T11:12:35;100262.78;;;11.16;89.77
46347;BME280;32057;47.830;19.046;2023-02-22T11:17:49;100251.31;;;11.07;89.84
46347;BME280;32057;47.830;19.046;2023-02-22T11:20:27;100250.38;;;11.03;89.94
46347;BME280;32057;47.830;19.046;2023-02-22T11:23:00;100247.78;;;11.03;90.93
46347;BME280;32057;47.830;19.046;2023-02-22T11:25:30;100250.22;;;10.94;90.12
46347;BME280;32057;47.830;19.046;2023-02-22T11:28:26;100241.56;;;10.95;90.26
46347;BME280;32057;47.830;19.046;2023-02-22T11:30:56;100250.88;;;10.82;89.39
46347;BME280;32057;47.830;19.046;2023-02-22T11:33:24;100245.66;;;10.81;90.04
46347;BME280;32057;47.830;19.046;2023-02-22T11:35:56;100237.81;;;10.79;89.79
46347;BME280;32057;47.830;19.046;2023-02-22T11:38:27;100237.81;;;10.79;89.41
46347;BME280;32057;47.830;19.046;2023-02-22T11:43:41;100237.59;;;10.68;90.52
46347;BME280;32057;47.830;19.046;2023-02-22T11:46:19;100243.69;;;10.69;90.22
46347;BME280;32057;47.830;19.046;2023-02-22T11:51:34;100244.50;;;10.66;88.99
46347;BME280;32057;47.830;19.046;2023-02-22T11:56:50;100238.38;;;10.63;88.93
46347;BME280;32057;47.830;19.046;2023-02-22T11:59:32;100241.00;;;10.64;88.86
46347;BME280;32057;47.830;19.046;2023-02-22T12:05:03;100247.00;;;10.60;89.56
46347;BME280;32057;47.830;19.046;2023-02-22T12:16:35;100245.09;;;10.51;88.03
46347;BME280;32057;47.830;19.046;2023-02-22T12:21:17;100241.59;;;10.49;89.21
46347;BME280;32057;47.830;19.046;2023-02-22T12:26:36;100235.44;;;10.46;90.42
46347;BME280;32057;47.830;19.046;2023-02-22T12:31:59;100232.91;;;10.49;88.41
46347;BME280;32057;47.830;19.046;2023-02-22T12:34:36;100232.97;;;10.50;88.28
46347;BME280;32057;47.830;19.046;2023-02-22T12:37:33;100225.28;;;10.58;86.96
46347;BME280;32057;47.830;19.046;2023-02-22T12:42:44;100221.97;;;10.67;87.55
46347;BME280;32057;47.830;19.046;2023-02-22T12:48:05;100218.63;;;10.72;87.60
46347;BME280;32057;47.830;19.046;2023-02-22T12:50:34;100214.41;;;10.82;85.49
46347;BME280;32057;47.830;19.046;2023-02-22T12:53:13;100212.84;;;10.90;87.55
46347;BME280;32057;47.830;19.046;2023-02-22T12:55:52;100216.28;;;10.89;86.58
46347;BME280;32057;47.830;19.046;2023-02-22T12:58:50;100210.25;;;10.90;85.88
46347;BME280;32057;47.830;19.046;2023-02-22T13:01:19;100212.03;;;10.93;86.99
46347;BME280;32057;47.830;19.046;2023-02-22T13:03:46;100208.59;;;10.95;85.65
46347;BME280;32057;47.830;19.046;2023-02-22T13:25:03;100207.06;;;11.08;84.40
46347;BME280;32057;47.830;19.046;2023-02-22T13:30:38;100200.94;;;11.06;84.86
46347;BME280;32057;47.830;19.046;2023-02-22T13:39:04;100199.34;;;11.16;83.12
46347;BME280;32057;47.830;19.046;2023-02-22T13:47:30;100205.47;;;11.16;82.23
46347;BME280;32057;47.830;19.046;2023-02-22T13:52:43;100199.31;;;11.11;82.30
46347;BME280;32057;47.830;19.046;2023-02-22T13:55:18;100204.44;;;11.07;82.95
46347;BME280;32057;47.830;19.046;2023-02-22T13:57:47;100200.88;;;11.02;83.01
46347;BME280;32057;47.830;19.046;2023-02-22T14:10:58;100200.88;;;11.02;84.83
46347;BME280;32057;47.830;19.046;2023-02-22T14:13:30;100197.38;;;11.00;84.14
46347;BME280;32057;47.830;19.046;2023-02-22T14:21:09;100195.66;;;11.02;82.98
46347;BME280;32057;47.830;19.046;2023-02-22T14:23:45;100199.09;;;10.99;83.13
46347;BME280;32057;47.830;19.046;2023-02-22T14:26:37;100198.22;;;11.00;83.46
46347;BME280;32057;47.830;19.046;2023-02-22T14:34:21;100205.16;;;10.98;81.32
46347;BME280;32057;47.830;19.046;2023-02-22T14:37:24;100202.56;;;11.00;82.94
46347;BME280;32057;47.830;19.046;2023-02-22T14:47:42;100203.25;;;10.88;82.11
46347;BME280;32057;47.830;19.046;2023-02-22T14:51:18;100199.72;;;10.84;82.94
46347;BME280;32057;47.830;19.046;2023-02-22T14:53:24;100201.53;;;10.88;82.87
46347;BME280;32057;47.830;19.046;2023-02-22T14:55:59;100198.00;;;10.85;82.00
46347;BME280;32057;47.830;19.046;2023-02-22T15:03:44;100192.78;;;10.85;83.04
46347;BME280;32057;47.830;19.046;2023-02-22T15:06:18;100197.91;;;10.80;83.39
46347;BME280;32057;47.830;19.046;2023-02-22T15:08:45;100197.94;;;10.82;84.73
46347;BME280;32057;47.830;19.046;2023-02-22T15:11:24;100197.88;;;10.77;85.48
46347;BME280;32057;47.830;19.046;2023-02-22T15:13:52;100200.47;;;10.77;85.60
46347;BME280;32057;47.830;19.046;2023-02-22T15:16:19;100192.59;;;10.74;86.40
46347;BME280;32057;47.830;19.046;2023-02-22T15:18:48;100198.66;;;10.73;87.08
46347;BME280;32057;47.830;19.046;2023-02-22T15:21:20;100200.41;;;10.72;86.65
46347;BME280;32057;47.830;19.046;2023-02-22T15:23:53;100196.84;;;10.69;86.46
46347;BME280;32057;47.830;19.046;2023-02-22T15:26:28;100189.88;;;10.68;87.10
46347;BME280;32057;47.830;19.046;2023-02-22T15:28:56;100189.75;;;10.60;87.37
46347;BME280;32057;47.830;19.046;2023-02-22T15:31:24;100184.47;;;10.55;87.37
46347;BME280;32057;47.830;19.046;2023-02-22T15:33:51;100191.38;;;10.53;90.71
46347;BME280;32057;47.830;19.046;2023-02-22T15:36:18;100187.00;;;10.51;92.17
46347;BME280;32057;47.830;19.046;2023-02-22T15:38:51;100190.50;;;10.53;92.47
46347;BME280;32057;47.830;19.046;2023-02-22T15:41:31;100187.00;;;10.51;92.51
46347;BME280;32057;47.830;19.046;2023-02-22T15:44:08;100188.66;;;10.47;91.92
46347;BME280;32057;47.830;19.046;2023-02-22T15:46:36;100192.03;;;10.42;89.96
46347;BME280;32057;47.830;19.046;2023-02-22T15:49:22;100197.19;;;10.40;90.92